Terminal Aerodrome Forecast
Issued by NWS San Angelo, TX

Home | Current Version | Previous Version | Text Only | Print | Product List | Glossary On
Versions: 1 2 3 4 5 6 7 8 9 10 11 12
000
FTUS44 KSJT 311120
TAFABI
TAF
KABI 311120Z 3112/0112 14005KT P6SM SKC
     FM311800 08008KT P6SM VCSH SCT060
     FM010100 VRB04KT P6SM SCT250=

USA.gov is the U.S. government's official web portal to all federal, state and local government web resources and services.